sensor_id;sensor_type;location;lat;lon;timestamp;P1;durP1;ratioP1;P2;durP2;ratioP2
20073;SDS011;10197;54.282;10.078;2024-01-27T00:01:43;31.70;;;6.43;;
20073;SDS011;10197;54.282;10.078;2024-01-27T00:04:11;38.50;;;7.30;;
20073;SDS011;10197;54.282;10.078;2024-01-27T00:06:39;33.47;;;7.03;;
20073;SDS011;10197;54.282;10.078;2024-01-27T00:09:06;34.25;;;8.35;;
20073;SDS011;10197;54.282;10.078;2024-01-27T00:11:33;39.47;;;8.90;;
20073;SDS011;10197;54.282;10.078;2024-01-27T00:14:00;40.40;;;7.13;;
20073;SDS011;10197;54.282;10.078;2024-01-27T00:16:28;38.90;;;7.05;;
20073;SDS011;10197;54.282;10.078;2024-01-27T00:18:56;32.53;;;6.07;;
20073;SDS011;10197;54.282;10.078;2024-01-27T00:21:22;41.70;;;7.85;;
20073;SDS011;10197;54.282;10.078;2024-01-27T00:23:51;46.95;;;7.65;;
20073;SDS011;10197;54.282;10.078;2024-01-27T00:26:17;35.17;;;6.47;;
20073;SDS011;10197;54.282;10.078;2024-01-27T00:28:44;32.92;;;7.00;;
20073;SDS011;10197;54.282;10.078;2024-01-27T00:31:11;30.80;;;6.97;;
20073;SDS011;10197;54.282;10.078;2024-01-27T00:33:38;39.20;;;7.00;;
20073;SDS011;10197;54.282;10.078;2024-01-27T00:36:05;37.65;;;7.32;;
20073;SDS011;10197;54.282;10.078;2024-01-27T00:38:32;41.63;;;7.60;;
20073;SDS011;10197;54.282;10.078;2024-01-27T00:41:00;40.65;;;7.72;;
20073;SDS011;10197;54.282;10.078;2024-01-27T00:43:27;38.42;;;7.57;;
20073;SDS011;10197;54.282;10.078;2024-01-27T00:45:53;33.45;;;6.57;;
20073;SDS011;10197;54.282;10.078;2024-01-27T00:48:21;38.05;;;7.38;;
20073;SDS011;10197;54.282;10.078;2024-01-27T00:50:48;35.05;;;8.18;;
20073;SDS011;10197;54.282;10.078;2024-01-27T00:53:15;42.25;;;7.07;;
20073;SDS011;10197;54.282;10.078;2024-01-27T00:55:42;41.60;;;6.70;;
20073;SDS011;10197;54.282;10.078;2024-01-27T00:58:10;40.85;;;7.57;;
20073;SDS011;10197;54.282;10.078;2024-01-27T01:00:36;40.50;;;8.27;;
20073;SDS011;10197;54.282;10.078;2024-01-27T01:03:03;35.35;;;7.30;;
20073;SDS011;10197;54.282;10.078;2024-01-27T01:05:30;33.80;;;7.25;;
20073;SDS011;10197;54.282;10.078;2024-01-27T01:07:57;42.95;;;8.20;;
20073;SDS011;10197;54.282;10.078;2024-01-27T01:10:23;46.65;;;9.70;;
20073;SDS011;10197;54.282;10.078;2024-01-27T01:12:51;42.95;;;6.60;;
20073;SDS011;10197;54.282;10.078;2024-01-27T01:15:19;33.13;;;7.82;;
20073;SDS011;10197;54.282;10.078;2024-01-27T01:21:34;45.72;;;8.27;;
20073;SDS011;10197;54.282;10.078;2024-01-27T01:24:00;39.88;;;7.22;;
20073;SDS011;10197;54.282;10.078;2024-01-27T01:26:27;39.72;;;9.68;;
20073;SDS011;10197;54.282;10.078;2024-01-27T01:28:54;36.47;;;7.88;;
20073;SDS011;10197;54.282;10.078;2024-01-27T01:31:22;32.20;;;7.05;;
20073;SDS011;10197;54.282;10.078;2024-01-27T01:33:48;41.28;;;7.82;;
20073;SDS011;10197;54.282;10.078;2024-01-27T01:36:15;40.42;;;7.68;;
20073;SDS011;10197;54.282;10.078;2024-01-27T01:38:42;36.13;;;9.15;;
20073;SDS011;10197;54.282;10.078;2024-01-27T01:41:08;39.25;;;7.20;;
20073;SDS011;10197;54.282;10.078;2024-01-27T01:43:35;33.63;;;6.65;;
20073;SDS011;10197;54.282;10.078;2024-01-27T01:46:02;37.88;;;6.82;;
20073;SDS011;10197;54.282;10.078;2024-01-27T01:48:30;34.03;;;7.18;;
20073;SDS011;10197;54.282;10.078;2024-01-27T01:50:58;40.42;;;6.72;;
20073;SDS011;10197;54.282;10.078;2024-01-27T01:53:26;37.83;;;7.07;;
20073;SDS011;10197;54.282;10.078;2024-01-27T01:55:53;48.35;;;6.88;;
20073;SDS011;10197;54.282;10.078;2024-01-27T01:58:20;38.50;;;6.93;;
20073;SDS011;10197;54.282;10.078;2024-01-27T02:00:47;38.67;;;6.43;;
20073;SDS011;10197;54.282;10.078;2024-01-27T02:03:13;41.72;;;8.27;;
20073;SDS011;10197;54.282;10.078;2024-01-27T02:05:41;37.40;;;7.85;;
20073;SDS011;10197;54.282;10.078;2024-01-27T02:08:08;31.65;;;7.40;;
20073;SDS011;10197;54.282;10.078;2024-01-27T02:10:35;32.58;;;7.22;;
20073;SDS011;10197;54.282;10.078;2024-01-27T02:13:03;30.83;;;6.60;;
20073;SDS011;10197;54.282;10.078;2024-01-27T02:15:30;41.80;;;7.38;;
20073;SDS011;10197;54.282;10.078;2024-01-27T02:17:58;32.80;;;6.88;;
20073;SDS011;10197;54.282;10.078;2024-01-27T02:20:24;30.35;;;6.97;;
20073;SDS011;10197;54.282;10.078;2024-01-27T02:22:53;41.78;;;7.22;;
20073;SDS011;10197;54.282;10.078;2024-01-27T02:25:21;41.10;;;8.60;;
20073;SDS011;10197;54.282;10.078;2024-01-27T02:27:48;42.28;;;7.28;;
20073;SDS011;10197;54.282;10.078;2024-01-27T02:30:14;28.15;;;7.07;;
20073;SDS011;10197;54.282;10.078;2024-01-27T02:32:41;38.42;;;7.10;;
20073;SDS011;10197;54.282;10.078;2024-01-27T02:35:08;40.53;;;6.78;;
20073;SDS011;10197;54.282;10.078;2024-01-27T02:37:34;41.60;;;7.88;;
20073;SDS011;10197;54.282;10.078;2024-01-27T02:40:01;39.70;;;7.10;;
20073;SDS011;10197;54.282;10.078;2024-01-27T02:42:30;42.60;;;7.35;;
20073;SDS011;10197;54.282;10.078;2024-01-27T02:44:56;39.88;;;7.53;;
20073;SDS011;10197;54.282;10.078;2024-01-27T02:47:23;30.85;;;6.50;;
20073;SDS011;10197;54.282;10.078;2024-01-27T02:49:50;38.47;;;6.65;;
20073;SDS011;10197;54.282;10.078;2024-01-27T02:52:16;42.95;;;7.97;;
20073;SDS011;10197;54.282;10.078;2024-01-27T02:54:43;37.92;;;7.75;;
20073;SDS011;10197;54.282;10.078;2024-01-27T02:57:10;45.10;;;8.95;;
20073;SDS011;10197;54.282;10.078;2024-01-27T02:59:39;37.75;;;7.57;;
20073;SDS011;10197;54.282;10.078;2024-01-27T03:02:06;44.08;;;8.52;;
20073;SDS011;10197;54.282;10.078;2024-01-27T03:04:33;36.85;;;7.63;;
20073;SDS011;10197;54.282;10.078;2024-01-27T03:07:00;36.47;;;6.60;;
20073;SDS011;10197;54.282;10.078;2024-01-27T03:09:27;45.38;;;8.07;;
20073;SDS011;10197;54.282;10.078;2024-01-27T03:11:53;45.15;;;7.60;;
20073;SDS011;10197;54.282;10.078;2024-01-27T03:14:20;44.78;;;7.45;;
20073;SDS011;10197;54.282;10.078;2024-01-27T03:16:49;37.83;;;7.00;;
20073;SDS011;10197;54.282;10.078;2024-01-27T03:19:16;37.80;;;6.90;;
20073;SDS011;10197;54.282;10.078;2024-01-27T03:21:42;38.17;;;8.93;;
20073;SDS011;10197;54.282;10.078;2024-01-27T03:24:09;40.97;;;7.65;;
20073;SDS011;10197;54.282;10.078;2024-01-27T03:26:36;37.25;;;7.90;;
20073;SDS011;10197;54.282;10.078;2024-01-27T03:29:02;45.72;;;7.45;;
20073;SDS011;10197;54.282;10.078;2024-01-27T03:31:30;45.40;;;7.40;;
20073;SDS011;10197;54.282;10.078;2024-01-27T03:33:58;39.72;;;6.53;;
20073;SDS011;10197;54.282;10.078;2024-01-27T03:36:25;40.42;;;8.15;;
20073;SDS011;10197;54.282;10.078;2024-01-27T03:38:52;46.33;;;8.35;;
20073;SDS011;10197;54.282;10.078;2024-01-27T03:41:19;42.10;;;7.22;;
20073;SDS011;10197;54.282;10.078;2024-01-27T03:43:46;42.38;;;7.03;;
20073;SDS011;10197;54.282;10.078;2024-01-27T03:46:12;42.05;;;7.55;;
20073;SDS011;10197;54.282;10.078;2024-01-27T03:48:39;37.53;;;7.07;;
20073;SDS011;10197;54.282;10.078;2024-01-27T03:51:08;40.17;;;7.40;;
20073;SDS011;10197;54.282;10.078;2024-01-27T03:53:34;39.90;;;7.85;;
20073;SDS011;10197;54.282;10.078;2024-01-27T03:56:01;42.08;;;6.72;;
20073;SDS011;10197;54.282;10.078;2024-01-27T03:58:29;44.33;;;7.55;;
20073;SDS011;10197;54.282;10.078;2024-01-27T04:00:56;42.22;;;7.22;;
20073;SDS011;10197;54.282;10.078;2024-01-27T04:03:23;41.25;;;6.93;;
20073;SDS011;10197;54.282;10.078;2024-01-27T04:05:50;40.17;;;7.68;;
20073;SDS011;10197;54.282;10.078;2024-01-27T04:08:18;40.75;;;6.65;;
20073;SDS011;10197;54.282;10.078;2024-01-27T04:10:45;33.78;;;6.68;;
20073;SDS011;10197;54.282;10.078;2024-01-27T04:13:12;41.25;;;7.10;;
20073;SDS011;10197;54.282;10.078;2024-01-27T04:15:39;37.85;;;7.78;;
20073;SDS011;10197;54.282;10.078;2024-01-27T04:18:06;37.60;;;7.60;;
20073;SDS011;10197;54.282;10.078;2024-01-27T04:20:33;34.58;;;6.55;;
20073;SDS011;10197;54.282;10.078;2024-01-27T04:23:00;51.42;;;7.25;;
20073;SDS011;10197;54.282;10.078;2024-01-27T04:25:29;42.35;;;7.03;;
20073;SDS011;10197;54.282;10.078;2024-01-27T04:27:56;39.85;;;6.60;;
20073;SDS011;10197;54.282;10.078;2024-01-27T04:30:22;28.05;;;6.57;;
20073;SDS011;10197;54.282;10.078;2024-01-27T04:32:49;32.88;;;6.22;;
20073;SDS011;10197;54.282;10.078;2024-01-27T04:35:17;36.47;;;7.07;;
20073;SDS011;10197;54.282;10.078;2024-01-27T04:37:44;39.63;;;7.45;;
20073;SDS011;10197;54.282;10.078;2024-01-27T04:40:10;44.53;;;7.32;;
20073;SDS011;10197;54.282;10.078;2024-01-27T04:42:39;41.08;;;7.18;;
20073;SDS011;10197;54.282;10.078;2024-01-27T04:45:06;35.28;;;7.55;;
20073;SDS011;10197;54.282;10.078;2024-01-27T04:47:33;32.30;;;7.65;;
20073;SDS011;10197;54.282;10.078;2024-01-27T04:50:00;35.92;;;6.72;;
20073;SDS011;10197;54.282;10.078;2024-01-27T04:52:28;40.15;;;7.40;;
20073;SDS011;10197;54.282;10.078;2024-01-27T04:54:55;47.70;;;7.13;;
20073;SDS011;10197;54.282;10.078;2024-01-27T04:57:21;43.58;;;8.05;;
20073;SDS011;10197;54.282;10.078;2024-01-27T04:59:49;32.75;;;6.35;;
20073;SDS011;10197;54.282;10.078;2024-01-27T05:02:17;36.80;;;7.03;;
20073;SDS011;10197;54.282;10.078;2024-01-27T05:04:44;40.85;;;7.93;;
20073;SDS011;10197;54.282;10.078;2024-01-27T05:07:10;38.88;;;7.32;;
20073;SDS011;10197;54.282;10.078;2024-01-27T05:09:37;40.35;;;6.43;;
20073;SDS011;10197;54.282;10.078;2024-01-27T05:12:05;42.13;;;7.78;;
20073;SDS011;10197;54.282;10.078;2024-01-27T05:14:32;37.50;;;6.88;;
20073;SDS011;10197;54.282;10.078;2024-01-27T05:17:01;34.78;;;7.32;;
20073;SDS011;10197;54.282;10.078;2024-01-27T05:19:27;37.72;;;7.30;;
20073;SDS011;10197;54.282;10.078;2024-01-27T05:21:54;38.28;;;7.50;;
20073;SDS011;10197;54.282;10.078;2024-01-27T05:24:21;44.17;;;6.60;;
20073;SDS011;10197;54.282;10.078;2024-01-27T05:26:48;40.03;;;7.22;;
20073;SDS011;10197;54.282;10.078;2024-01-27T05:29:15;37.30;;;7.80;;
20073;SDS011;10197;54.282;10.078;2024-01-27T05:31:42;42.97;;;7.47;;
20073;SDS011;10197;54.282;10.078;2024-01-27T05:34:10;41.10;;;7.32;;
20073;SDS011;10197;54.282;10.078;2024-01-27T05:36:37;38.58;;;7.70;;
20073;SDS011;10197;54.282;10.078;2024-01-27T05:39:04;38.35;;;7.10;;
20073;SDS011;10197;54.282;10.078;2024-01-27T05:41:32;46.95;;;8.32;;
20073;SDS011;10197;54.282;10.078;2024-01-27T05:43:58;39.60;;;7.03;;
20073;SDS011;10197;54.282;10.078;2024-01-27T05:46:25;40.08;;;7.53;;
20073;SDS011;10197;54.282;10.078;2024-01-27T05:48:52;37.72;;;7.55;;
20073;SDS011;10197;54.282;10.078;2024-01-27T05:51:24;40.15;;;7.95;;
20073;SDS011;10197;54.282;10.078;2024-01-27T05:53:51;42.45;;;7.70;;
20073;SDS011;10197;54.282;10.078;2024-01-27T05:56:18;51.97;;;8.82;;
20073;SDS011;10197;54.282;10.078;2024-01-27T05:58:45;35.15;;;8.05;;
20073;SDS011;10197;54.282;10.078;2024-01-27T06:01:12;44.97;;;7.65;;
20073;SDS011;10197;54.282;10.078;2024-01-27T06:03:40;35.90;;;8.43;;
20073;SDS011;10197;54.282;10.078;2024-01-27T06:06:07;41.05;;;9.15;;
20073;SDS011;10197;54.282;10.078;2024-01-27T06:08:36;38.95;;;6.78;;
20073;SDS011;10197;54.282;10.078;2024-01-27T06:11:03;33.25;;;7.05;;
20073;SDS011;10197;54.282;10.078;2024-01-27T06:13:30;39.97;;;7.65;;
20073;SDS011;10197;54.282;10.078;2024-01-27T06:15:58;35.45;;;7.45;;
20073;SDS011;10197;54.282;10.078;2024-01-27T06:18:24;31.63;;;7.03;;
20073;SDS011;10197;54.282;10.078;2024-01-27T06:20:51;39.83;;;7.43;;
20073;SDS011;10197;54.282;10.078;2024-01-27T06:23:18;36.70;;;7.05;;
20073;SDS011;10197;54.282;10.078;2024-01-27T06:25:46;42.72;;;6.60;;
20073;SDS011;10197;54.282;10.078;2024-01-27T06:28:13;42.28;;;7.03;;
20073;SDS011;10197;54.282;10.078;2024-01-27T06:30:39;36.58;;;6.60;;
20073;SDS011;10197;54.282;10.078;2024-01-27T06:33:06;36.78;;;6.78;;
20073;SDS011;10197;54.282;10.078;2024-01-27T06:35:33;38.97;;;8.45;;
20073;SDS011;10197;54.282;10.078;2024-01-27T06:37:59;45.85;;;7.85;;
20073;SDS011;10197;54.282;10.078;2024-01-27T06:40:26;47.97;;;7.28;;
20073;SDS011;10197;54.282;10.078;2024-01-27T06:42:54;29.50;;;6.78;;
20073;SDS011;10197;54.282;10.078;2024-01-27T06:45:21;37.22;;;6.65;;
20073;SDS011;10197;54.282;10.078;2024-01-27T06:47:48;33.33;;;6.65;;
20073;SDS011;10197;54.282;10.078;2024-01-27T06:50:14;43.47;;;7.18;;
20073;SDS011;10197;54.282;10.078;2024-01-27T06:52:41;34.53;;;5.95;;
20073;SDS011;10197;54.282;10.078;2024-01-27T06:55:08;45.28;;;8.90;;
20073;SDS011;10197;54.282;10.078;2024-01-27T06:57:37;38.55;;;8.82;;
20073;SDS011;10197;54.282;10.078;2024-01-27T07:00:09;37.97;;;7.03;;
20073;SDS011;10197;54.282;10.078;2024-01-27T07:02:39;44.63;;;7.07;;
20073;SDS011;10197;54.282;10.078;2024-01-27T07:05:07;35.08;;;6.95;;
20073;SDS011;10197;54.282;10.078;2024-01-27T07:07:34;42.90;;;7.47;;
20073;SDS011;10197;54.282;10.078;2024-01-27T07:10:01;43.08;;;6.72;;
20073;SDS011;10197;54.282;10.078;2024-01-27T07:12:28;41.92;;;7.07;;
20073;SDS011;10197;54.282;10.078;2024-01-27T07:14:55;35.78;;;7.15;;
20073;SDS011;10197;54.282;10.078;2024-01-27T07:17:23;41.53;;;7.25;;
20073;SDS011;10197;54.282;10.078;2024-01-27T07:19:50;43.72;;;7.70;;
20073;SDS011;10197;54.282;10.078;2024-01-27T07:22:17;40.67;;;7.85;;
20073;SDS011;10197;54.282;10.078;2024-01-27T07:24:44;31.50;;;6.20;;
20073;SDS011;10197;54.282;10.078;2024-01-27T07:27:11;42.10;;;6.90;;
20073;SDS011;10197;54.282;10.078;2024-01-27T07:29:38;41.25;;;7.80;;
20073;SDS011;10197;54.282;10.078;2024-01-27T07:32:05;43.65;;;6.65;;
20073;SDS011;10197;54.282;10.078;2024-01-27T07:34:35;42.65;;;7.70;;
20073;SDS011;10197;54.282;10.078;2024-01-27T07:37:01;38.33;;;6.47;;
20073;SDS011;10197;54.282;10.078;2024-01-27T07:39:28;34.47;;;7.38;;
20073;SDS011;10197;54.282;10.078;2024-01-27T07:41:55;39.28;;;7.70;;
20073;SDS011;10197;54.282;10.078;2024-01-27T07:44:22;41.28;;;8.02;;
20073;SDS011;10197;54.282;10.078;2024-01-27T07:46:48;36.00;;;8.10;;
20073;SDS011;10197;54.282;10.078;2024-01-27T07:49:15;33.60;;;7.38;;
20073;SDS011;10197;54.282;10.078;2024-01-27T07:51:44;30.60;;;6.18;;
20073;SDS011;10197;54.282;10.078;2024-01-27T07:54:11;31.50;;;7.13;;
20073;SDS011;10197;54.282;10.078;2024-01-27T07:56:37;40.95;;;7.97;;
20073;SDS011;10197;54.282;10.078;2024-01-27T07:59:04;31.67;;;7.25;;
20073;SDS011;10197;54.282;10.078;2024-01-27T08:01:38;37.33;;;6.32;;
20073;SDS011;10197;54.282;10.078;2024-01-27T08:04:05;39.28;;;6.47;;
20073;SDS011;10197;54.282;10.078;2024-01-27T08:06:32;37.17;;;6.82;;
20073;SDS011;10197;54.282;10.078;2024-01-27T08:09:00;49.40;;;7.65;;
20073;SDS011;10197;54.282;10.078;2024-01-27T08:11:27;43.05;;;7.28;;
20073;SDS011;10197;54.282;10.078;2024-01-27T08:13:53;39.83;;;8.52;;
20073;SDS011;10197;54.282;10.078;2024-01-27T08:16:20;31.20;;;7.50;;
20073;SDS011;10197;54.282;10.078;2024-01-27T08:18:46;44.53;;;7.32;;
20073;SDS011;10197;54.282;10.078;2024-01-27T08:21:13;40.65;;;7.57;;
20073;SDS011;10197;54.282;10.078;2024-01-27T08:23:40;39.90;;;7.53;;
20073;SDS011;10197;54.282;10.078;2024-01-27T08:26:08;35.85;;;8.05;;
20073;SDS011;10197;54.282;10.078;2024-01-27T08:28:35;28.08;;;7.00;;
20073;SDS011;10197;54.282;10.078;2024-01-27T08:31:02;42.70;;;7.75;;
20073;SDS011;10197;54.282;10.078;2024-01-27T08:33:30;47.60;;;7.30;;
20073;SDS011;10197;54.282;10.078;2024-01-27T08:35:56;40.83;;;7.70;;
20073;SDS011;10197;54.282;10.078;2024-01-27T08:38:23;41.08;;;7.78;;
20073;SDS011;10197;54.282;10.078;2024-01-27T08:40:50;33.35;;;6.45;;
20073;SDS011;10197;54.282;10.078;2024-01-27T08:43:18;30.73;;;7.22;;
20073;SDS011;10197;54.282;10.078;2024-01-27T08:45:44;43.10;;;8.20;;
20073;SDS011;10197;54.282;10.078;2024-01-27T08:48:11;44.28;;;7.65;;
20073;SDS011;10197;54.282;10.078;2024-01-27T08:50:38;40.22;;;6.63;;
20073;SDS011;10197;54.282;10.078;2024-01-27T08:53:05;33.33;;;6.43;;
20073;SDS011;10197;54.282;10.078;2024-01-27T08:55:32;46.45;;;7.40;;
20073;SDS011;10197;54.282;10.078;2024-01-27T08:57:59;48.50;;;7.07;;
20073;SDS011;10197;54.282;10.078;2024-01-27T09:00:27;40.63;;;6.82;;
20073;SDS011;10197;54.282;10.078;2024-01-27T09:02:54;36.45;;;7.40;;
20073;SDS011;10197;54.282;10.078;2024-01-27T09:05:21;42.78;;;7.07;;
20073;SDS011;10197;54.282;10.078;2024-01-27T09:07:48;40.45;;;7.03;;
20073;SDS011;10197;54.282;10.078;2024-01-27T09:10:15;33.53;;;7.13;;
20073;SDS011;10197;54.282;10.078;2024-01-27T09:12:41;37.08;;;8.30;;
20073;SDS011;10197;54.282;10.078;2024-01-27T09:15:09;38.60;;;7.10;;
20073;SDS011;10197;54.282;10.078;2024-01-27T09:17:37;36.45;;;7.28;;
20073;SDS011;10197;54.282;10.078;2024-01-27T09:20:05;39.85;;;8.43;;
20073;SDS011;10197;54.282;10.078;2024-01-27T09:22:32;35.72;;;7.13;;
20073;SDS011;10197;54.282;10.078;2024-01-27T09:24:59;30.73;;;6.20;;
20073;SDS011;10197;54.282;10.078;2024-01-27T09:27:26;28.35;;;6.38;;
20073;SDS011;10197;54.282;10.078;2024-01-27T09:29:52;36.13;;;6.82;;
20073;SDS011;10197;54.282;10.078;2024-01-27T09:32:19;34.65;;;7.28;;
20073;SDS011;10197;54.282;10.078;2024-01-27T09:34:47;33.08;;;8.05;;
20073;SDS011;10197;54.282;10.078;2024-01-27T09:37:14;41.70;;;8.07;;
20073;SDS011;10197;54.282;10.078;2024-01-27T09:39:40;37.75;;;7.68;;
20073;SDS011;10197;54.282;10.078;2024-01-27T09:42:07;30.60;;;6.80;;
20073;SDS011;10197;54.282;10.078;2024-01-27T09:44:39;35.65;;;7.75;;
20073;SDS011;10197;54.282;10.078;2024-01-27T09:47:10;40.47;;;7.15;;
20073;SDS011;10197;54.282;10.078;2024-01-27T09:49:38;42.55;;;8.50;;
20073;SDS011;10197;54.282;10.078;2024-01-27T09:52:07;41.90;;;7.63;;
20073;SDS011;10197;54.282;10.078;2024-01-27T09:54:34;37.22;;;7.22;;
20073;SDS011;10197;54.282;10.078;2024-01-27T09:57:01;32.85;;;7.47;;
20073;SDS011;10197;54.282;10.078;2024-01-27T09:59:28;36.95;;;8.30;;
20073;SDS011;10197;54.282;10.078;2024-01-27T10:01:56;35.15;;;7.40;;
20073;SDS011;10197;54.282;10.078;2024-01-27T10:04:23;28.77;;;7.82;;
20073;SDS011;10197;54.282;10.078;2024-01-27T10:06:52;41.28;;;9.25;;
20073;SDS011;10197;54.282;10.078;2024-01-27T10:09:20;38.08;;;7.05;;
20073;SDS011;10197;54.282;10.078;2024-01-27T10:11:47;40.53;;;7.35;;
20073;SDS011;10197;54.282;10.078;2024-01-27T10:14:14;44.03;;;7.82;;
20073;SDS011;10197;54.282;10.078;2024-01-27T10:16:41;46.60;;;7.70;;
20073;SDS011;10197;54.282;10.078;2024-01-27T10:19:12;40.95;;;7.07;;
20073;SDS011;10197;54.282;10.078;2024-01-27T10:21:39;30.95;;;7.97;;
20073;SDS011;10197;54.282;10.078;2024-01-27T10:24:05;40.80;;;8.10;;
20073;SDS011;10197;54.282;10.078;2024-01-27T10:26:34;44.72;;;8.60;;
20073;SDS011;10197;54.282;10.078;2024-01-27T10:29:01;32.70;;;6.60;;
20073;SDS011;10197;54.282;10.078;2024-01-27T10:31:28;33.35;;;6.68;;
20073;SDS011;10197;54.282;10.078;2024-01-27T10:33:56;34.70;;;6.70;;
20073;SDS011;10197;54.282;10.078;2024-01-27T10:36:23;30.55;;;6.50;;
20073;SDS011;10197;54.282;10.078;2024-01-27T10:38:51;32.65;;;6.40;;
20073;SDS011;10197;54.282;10.078;2024-01-27T10:41:19;30.77;;;6.85;;
20073;SDS011;10197;54.282;10.078;2024-01-27T10:43:51;41.00;;;7.28;;
20073;SDS011;10197;54.282;10.078;2024-01-27T10:46:18;29.50;;;6.65;;
20073;SDS011;10197;54.282;10.078;2024-01-27T10:48:47;28.83;;;7.20;;
20073;SDS011;10197;54.282;10.078;2024-01-27T10:51:16;28.25;;;6.38;;
20073;SDS011;10197;54.282;10.078;2024-01-27T10:53:45;32.80;;;7.70;;
20073;SDS011;10197;54.282;10.078;2024-01-27T10:56:15;35.67;;;8.00;;
20073;SDS011;10197;54.282;10.078;2024-01-27T10:58:43;45.35;;;10.07;;
20073;SDS011;10197;54.282;10.078;2024-01-27T11:01:13;29.10;;;7.15;;
20073;SDS011;10197;54.282;10.078;2024-01-27T11:03:40;31.35;;;7.63;;
20073;SDS011;10197;54.282;10.078;2024-01-27T11:06:07;34.78;;;8.45;;
20073;SDS011;10197;54.282;10.078;2024-01-27T11:08:34;32.38;;;7.00;;
20073;SDS011;10197;54.282;10.078;2024-01-27T11:11:01;34.30;;;7.38;;
20073;SDS011;10197;54.282;10.078;2024-01-27T11:13:28;25.60;;;6.28;;
20073;SDS011;10197;54.282;10.078;2024-01-27T11:15:56;28.50;;;7.60;;
20073;SDS011;10197;54.282;10.078;2024-01-27T11:18:25;36.28;;;7.70;;
20073;SDS011;10197;54.282;10.078;2024-01-27T11:20:52;28.88;;;6.40;;
20073;SDS011;10197;54.282;10.078;2024-01-27T11:23:19;31.70;;;6.20;;
20073;SDS011;10197;54.282;10.078;2024-01-27T11:25:46;35.30;;;7.57;;
20073;SDS011;10197;54.282;10.078;2024-01-27T11:28:13;32.03;;;7.68;;
20073;SDS011;10197;54.282;10.078;2024-01-27T11:30:44;31.75;;;6.78;;
20073;SDS011;10197;54.282;10.078;2024-01-27T11:33:12;30.40;;;6.22;;
20073;SDS011;10197;54.282;10.078;2024-01-27T11:35:40;28.05;;;7.35;;
20073;SDS011;10197;54.282;10.078;2024-01-27T11:38:07;34.47;;;6.93;;
20073;SDS011;10197;54.282;10.078;2024-01-27T11:40:44;33.17;;;7.15;;
20073;SDS011;10197;54.282;10.078;2024-01-27T11:43:11;31.48;;;6.70;;
20073;SDS011;10197;54.282;10.078;2024-01-27T11:45:39;20.77;;;6.28;;
20073;SDS011;10197;54.282;10.078;2024-01-27T11:48:05;31.52;;;6.78;;
20073;SDS011;10197;54.282;10.078;2024-01-27T11:50:32;30.92;;;6.68;;
20073;SDS011;10197;54.282;10.078;2024-01-27T11:53:00;27.67;;;6.43;;
20073;SDS011;10197;54.282;10.078;2024-01-27T11:55:27;38.97;;;7.72;;
20073;SDS011;10197;54.282;10.078;2024-01-27T11:57:54;25.90;;;6.45;;
20073;SDS011;10197;54.282;10.078;2024-01-27T12:00:21;35.50;;;7.70;;
20073;SDS011;10197;54.282;10.078;2024-01-27T12:02:49;28.45;;;7.20;;
20073;SDS011;10197;54.282;10.078;2024-01-27T12:05:16;31.48;;;6.65;;
20073;SDS011;10197;54.282;10.078;2024-01-27T12:07:43;22.90;;;6.65;;
20073;SDS011;10197;54.282;10.078;2024-01-27T12:10:11;29.02;;;6.25;;
20073;SDS011;10197;54.282;10.078;2024-01-27T12:12:38;25.70;;;6.82;;
20073;SDS011;10197;54.282;10.078;2024-01-27T12:15:05;25.95;;;5.82;;
20073;SDS011;10197;54.282;10.078;2024-01-27T12:17:32;32.92;;;6.93;;
20073;SDS011;10197;54.282;10.078;2024-01-27T12:19:59;24.50;;;6.43;;
20073;SDS011;10197;54.282;10.078;2024-01-27T12:22:26;25.35;;;6.43;;
20073;SDS011;10197;54.282;10.078;2024-01-27T12:24:54;23.85;;;6.15;;
20073;SDS011;10197;54.282;10.078;2024-01-27T12:27:23;28.73;;;6.15;;
20073;SDS011;10197;54.282;10.078;2024-01-27T12:29:50;28.58;;;6.00;;
20073;SDS011;10197;54.282;10.078;2024-01-27T12:32:18;22.55;;;5.68;;
20073;SDS011;10197;54.282;10.078;2024-01-27T12:34:45;28.88;;;6.00;;
20073;SDS011;10197;54.282;10.078;2024-01-27T12:37:13;31.13;;;5.85;;
20073;SDS011;10197;54.282;10.078;2024-01-27T12:39:40;29.40;;;6.55;;
20073;SDS011;10197;54.282;10.078;2024-01-27T12:42:08;28.27;;;6.40;;
20073;SDS011;10197;54.282;10.078;2024-01-27T12:44:37;32.20;;;7.40;;
20073;SDS011;10197;54.282;10.078;2024-01-27T12:47:04;24.65;;;5.38;;
20073;SDS011;10197;54.282;10.078;2024-01-27T12:49:31;25.80;;;7.18;;
20073;SDS011;10197;54.282;10.078;2024-01-27T12:51:58;27.20;;;5.50;;
20073;SDS011;10197;54.282;10.078;2024-01-27T12:54:24;28.27;;;6.85;;
20073;SDS011;10197;54.282;10.078;2024-01-27T12:56:51;21.63;;;5.65;;
20073;SDS011;10197;54.282;10.078;2024-01-27T12:59:18;25.48;;;5.47;;
20073;SDS011;10197;54.282;10.078;2024-01-27T13:01:46;21.65;;;5.47;;
20073;SDS011;10197;54.282;10.078;2024-01-27T13:04:13;32.35;;;6.13;;
20073;SDS011;10197;54.282;10.078;2024-01-27T13:06:40;25.95;;;5.25;;
20073;SDS011;10197;54.282;10.078;2024-01-27T13:09:07;26.20;;;6.07;;
20073;SDS011;10197;54.282;10.078;2024-01-27T13:11:36;25.63;;;5.85;;
20073;SDS011;10197;54.282;10.078;2024-01-27T13:14:03;27.88;;;5.68;;
20073;SDS011;10197;54.282;10.078;2024-01-27T13:16:29;32.40;;;5.85;;
20073;SDS011;10197;54.282;10.078;2024-01-27T13:18:58;27.98;;;6.22;;
20073;SDS011;10197;54.282;10.078;2024-01-27T13:21:24;27.65;;;6.90;;
20073;SDS011;10197;54.282;10.078;2024-01-27T13:23:51;21.73;;;6.10;;
20073;SDS011;10197;54.282;10.078;2024-01-27T13:26:18;20.30;;;5.40;;
20073;SDS011;10197;54.282;10.078;2024-01-27T13:28:45;23.52;;;5.30;;
20073;SDS011;10197;54.282;10.078;2024-01-27T13:31:12;24.67;;;5.63;;
20073;SDS011;10197;54.282;10.078;2024-01-27T13:33:38;22.38;;;5.55;;
20073;SDS011;10197;54.282;10.078;2024-01-27T13:36:07;25.42;;;5.50;;
20073;SDS011;10197;54.282;10.078;2024-01-27T13:38:34;22.88;;;5.47;;
20073;SDS011;10197;54.282;10.078;2024-01-27T13:41:03;19.52;;;5.65;;
20073;SDS011;10197;54.282;10.078;2024-01-27T13:43:29;24.00;;;5.25;;
20073;SDS011;10197;54.282;10.078;2024-01-27T13:45:56;26.77;;;6.03;;
20073;SDS011;10197;54.282;10.078;2024-01-27T13:48:23;29.85;;;6.20;;
20073;SDS011;10197;54.282;10.078;2024-01-27T13:50:49;25.00;;;5.70;;
20073;SDS011;10197;54.282;10.078;2024-01-27T13:53:18;26.73;;;6.15;;
20073;SDS011;10197;54.282;10.078;2024-01-27T13:55:44;25.00;;;6.00;;
20073;SDS011;10197;54.282;10.078;2024-01-27T13:58:11;29.83;;;6.20;;
20073;SDS011;10197;54.282;10.078;2024-01-27T14:00:38;22.45;;;5.38;;
20073;SDS011;10197;54.282;10.078;2024-01-27T14:03:04;29.13;;;7.00;;
20073;SDS011;10197;54.282;10.078;2024-01-27T14:05:32;23.23;;;5.97;;
20073;SDS011;10197;54.282;10.078;2024-01-27T14:07:58;23.63;;;5.70;;
20073;SDS011;10197;54.282;10.078;2024-01-27T14:10:27;26.90;;;5.78;;
20073;SDS011;10197;54.282;10.078;2024-01-27T14:12:53;26.52;;;5.55;;
20073;SDS011;10197;54.282;10.078;2024-01-27T14:15:20;25.83;;;6.13;;
20073;SDS011;10197;54.282;10.078;2024-01-27T14:17:47;24.02;;;5.90;;
20073;SDS011;10197;54.282;10.078;2024-01-27T14:20:14;24.02;;;5.63;;
20073;SDS011;10197;54.282;10.078;2024-01-27T14:22:41;25.92;;;5.53;;
20073;SDS011;10197;54.282;10.078;2024-01-27T14:25:09;25.73;;;5.55;;